sensor_id;sensor_type;location;lat;lon;timestamp;pressure;altitude;pressure_sealevel;temperature;humidity
62632;BME280;48703;51.248;-0.546;2022-10-17T00:01:24;100330;;;15.53;92.96
62632;BME280;48703;51.248;-0.546;2022-10-17T00:04:25;100310;;;15.54;92.87
62632;BME280;48703;51.248;-0.546;2022-10-17T00:07:27;100304;;;15.52;92.54
62632;BME280;48703;51.248;-0.546;2022-10-17T00:10:29;100322;;;15.51;92.35
62632;BME280;48703;51.248;-0.546;2022-10-17T00:13:31;100322;;;15.49;92.30
62632;BME280;48703;51.248;-0.546;2022-10-17T00:16:34;100327;;;15.48;92.20
62632;BME280;48703;51.248;-0.546;2022-10-17T00:19:34;100331;;;15.47;92.05
62632;BME280;48703;51.248;-0.546;2022-10-17T00:22:36;100341;;;15.46;92.04
62632;BME280;48703;51.248;-0.546;2022-10-17T00:25:38;100350;;;15.46;91.99
62632;BME280;48703;51.248;-0.546;2022-10-17T00:28:40;100362;;;15.46;92.11
62632;BME280;48703;51.248;-0.546;2022-10-17T00:31:42;100375;;;15.45;92.02
62632;BME280;48703;51.248;-0.546;2022-10-17T00:34:44;100373;;;15.44;91.93
62632;BME280;48703;51.248;-0.546;2022-10-17T00:37:45;100371;;;15.43;91.78
62632;BME280;48703;51.248;-0.546;2022-10-17T00:40:47;100372;;;15.43;91.73
62632;BME280;48703;51.248;-0.546;2022-10-17T00:43:50;100378;;;15.41;91.67
62632;BME280;48703;51.248;-0.546;2022-10-17T00:46:51;100378;;;15.40;91.50
62632;BME280;48703;51.248;-0.546;2022-10-17T00:49:53;100382;;;15.38;91.41
62632;BME280;48703;51.248;-0.546;2022-10-17T00:52:55;100385;;;15.37;91.41
62632;BME280;48703;51.248;-0.546;2022-10-17T00:55:57;100392;;;15.36;91.40
62632;BME280;48703;51.248;-0.546;2022-10-17T00:58:58;100393;;;15.35;91.39
62632;BME280;48703;51.248;-0.546;2022-10-17T01:02:02;100397;;;15.34;91.31
62632;BME280;48703;51.248;-0.546;2022-10-17T01:05:02;100406;;;15.32;91.40
62632;BME280;48703;51.248;-0.546;2022-10-17T01:08:04;100408;;;15.33;91.41
62632;BME280;48703;51.248;-0.546;2022-10-17T01:11:09;100411;;;15.32;91.40
62632;BME280;48703;51.248;-0.546;2022-10-17T01:14:09;100410;;;15.32;91.41
62632;BME280;48703;51.248;-0.546;2022-10-17T01:17:14;100412;;;15.31;91.28
62632;BME280;48703;51.248;-0.546;2022-10-17T01:20:51;100416;;;15.30;91.16
62632;BME280;48703;51.248;-0.546;2022-10-17T01:23:26;100414;;;15.30;91.11
62632;BME280;48703;51.248;-0.546;2022-10-17T01:26:20;100426;;;15.29;90.98
62632;BME280;48703;51.248;-0.546;2022-10-17T01:30:39;100434;;;15.28;91.00
62632;BME280;48703;51.248;-0.546;2022-10-17T01:33:22;100447;;;15.27;90.98
62632;BME280;48703;51.248;-0.546;2022-10-17T01:36:24;100444;;;15.26;90.87
62632;BME280;48703;51.248;-0.546;2022-10-17T01:39:25;100439;;;15.26;90.82
62632;BME280;48703;51.248;-0.546;2022-10-17T01:42:26;100438;;;15.25;90.82
62632;BME280;48703;51.248;-0.546;2022-10-17T01:45:28;100445;;;15.25;90.71
62632;BME280;48703;51.248;-0.546;2022-10-17T01:48:30;100456;;;15.24;90.66
62632;BME280;48703;51.248;-0.546;2022-10-17T01:51:32;100465;;;15.23;90.54
62632;BME280;48703;51.248;-0.546;2022-10-17T01:54:35;100471;;;15.22;90.60
62632;BME280;48703;51.248;-0.546;2022-10-17T01:57:35;100472;;;15.22;90.48
62632;BME280;48703;51.248;-0.546;2022-10-17T02:00:36;100472;;;15.21;90.45
62632;BME280;48703;51.248;-0.546;2022-10-17T02:03:38;100481;;;15.21;90.50
62632;BME280;48703;51.248;-0.546;2022-10-17T02:06:40;100491;;;15.21;90.41
62632;BME280;48703;51.248;-0.546;2022-10-17T02:09:42;100493;;;15.21;90.31
62632;BME280;48703;51.248;-0.546;2022-10-17T02:12:45;100499;;;15.21;90.25
62632;BME280;48703;51.248;-0.546;2022-10-17T02:15:50;100509;;;15.21;90.15
62632;BME280;48703;51.248;-0.546;2022-10-17T02:18:56;100508;;;15.21;90.26
62632;BME280;48703;51.248;-0.546;2022-10-17T02:21:50;100502;;;15.20;90.24
62632;BME280;48703;51.248;-0.546;2022-10-17T02:24:53;100500;;;15.20;90.23
62632;BME280;48703;51.248;-0.546;2022-10-17T02:27:54;100495;;;15.18;90.27
62632;BME280;48703;51.248;-0.546;2022-10-17T02:30:57;100498;;;15.18;90.18
62632;BME280;48703;51.248;-0.546;2022-10-17T02:33:57;100491;;;15.19;90.23
62632;BME280;48703;51.248;-0.546;2022-10-17T02:36:59;100469;;;15.18;90.27
62632;BME280;48703;51.248;-0.546;2022-10-17T02:40:00;100449;;;15.18;90.29
62632;BME280;48703;51.248;-0.546;2022-10-17T02:43:02;100438;;;15.18;90.15
62632;BME280;48703;51.248;-0.546;2022-10-17T02:46:04;100450;;;15.17;90.17
62632;BME280;48703;51.248;-0.546;2022-10-17T02:49:06;100453;;;15.17;90.09
62632;BME280;48703;51.248;-0.546;2022-10-17T02:52:09;100458;;;15.17;90.06
62632;BME280;48703;51.248;-0.546;2022-10-17T02:55:11;100446;;;15.16;90.04
62632;BME280;48703;51.248;-0.546;2022-10-17T02:58:13;100465;;;15.16;90.01
62632;BME280;48703;51.248;-0.546;2022-10-17T03:01:13;100468;;;15.16;89.99
62632;BME280;48703;51.248;-0.546;2022-10-17T03:04:16;100462;;;15.16;89.94
62632;BME280;48703;51.248;-0.546;2022-10-17T03:07:17;100461;;;15.14;89.99
62632;BME280;48703;51.248;-0.546;2022-10-17T03:10:19;100456;;;15.12;89.97
62632;BME280;48703;51.248;-0.546;2022-10-17T03:13:21;100455;;;15.10;89.96
62632;BME280;48703;51.248;-0.546;2022-10-17T03:16:23;100455;;;15.09;90.09
62632;BME280;48703;51.248;-0.546;2022-10-17T03:19:24;100457;;;15.09;90.13
62632;BME280;48703;51.248;-0.546;2022-10-17T03:22:26;100465;;;15.08;90.11
62632;BME280;48703;51.248;-0.546;2022-10-17T03:25:28;100471;;;15.08;90.05
62632;BME280;48703;51.248;-0.546;2022-10-17T03:28:30;100474;;;15.08;90.11
62632;BME280;48703;51.248;-0.546;2022-10-17T03:31:32;100484;;;15.08;90.13
62632;BME280;48703;51.248;-0.546;2022-10-17T03:34:34;100477;;;15.09;90.12
62632;BME280;48703;51.248;-0.546;2022-10-17T03:37:36;100473;;;15.09;89.89
62632;BME280;48703;51.248;-0.546;2022-10-17T03:40:38;100478;;;15.09;89.80
62632;BME280;48703;51.248;-0.546;2022-10-17T03:43:39;100481;;;15.10;89.81
62632;BME280;48703;51.248;-0.546;2022-10-17T03:46:41;100488;;;15.10;89.67
62632;BME280;48703;51.248;-0.546;2022-10-17T03:49:43;100493;;;15.10;89.49
62632;BME280;48703;51.248;-0.546;2022-10-17T03:52:45;100489;;;15.09;89.47
62632;BME280;48703;51.248;-0.546;2022-10-17T03:55:47;100488;;;15.09;89.10
62632;BME280;48703;51.248;-0.546;2022-10-17T03:58:49;100488;;;15.08;88.99
62632;BME280;48703;51.248;-0.546;2022-10-17T04:01:50;100490;;;15.08;88.90
62632;BME280;48703;51.248;-0.546;2022-10-17T04:04:52;100494;;;15.07;88.95
62632;BME280;48703;51.248;-0.546;2022-10-17T04:07:54;100486;;;15.06;88.96
62632;BME280;48703;51.248;-0.546;2022-10-17T04:10:57;100489;;;15.05;88.93
62632;BME280;48703;51.248;-0.546;2022-10-17T04:13:58;100493;;;15.04;88.93
62632;BME280;48703;51.248;-0.546;2022-10-17T04:17:00;100502;;;15.03;88.99
62632;BME280;48703;51.248;-0.546;2022-10-17T04:20:02;100506;;;15.03;88.95
62632;BME280;48703;51.248;-0.546;2022-10-17T04:23:04;100493;;;15.03;89.02
62632;BME280;48703;51.248;-0.546;2022-10-17T04:26:05;100496;;;15.02;88.98
62632;BME280;48703;51.248;-0.546;2022-10-17T04:29:07;100509;;;15.02;89.03
62632;BME280;48703;51.248;-0.546;2022-10-17T04:32:09;100513;;;15.02;88.95
62632;BME280;48703;51.248;-0.546;2022-10-17T04:35:11;100520;;;15.02;88.95
62632;BME280;48703;51.248;-0.546;2022-10-17T04:38:13;100525;;;15.02;88.93
62632;BME280;48703;51.248;-0.546;2022-10-17T04:41:16;100529;;;15.02;88.97
62632;BME280;48703;51.248;-0.546;2022-10-17T04:44:17;100532;;;15.02;89.04
62632;BME280;48703;51.248;-0.546;2022-10-17T04:47:18;100528;;;15.01;89.15
62632;BME280;48703;51.248;-0.546;2022-10-17T04:50:20;100536;;;15.00;89.26
62632;BME280;48703;51.248;-0.546;2022-10-17T04:53:22;100549;;;14.99;89.35
62632;BME280;48703;51.248;-0.546;2022-10-17T04:56:24;100558;;;14.98;89.53
62632;BME280;48703;51.248;-0.546;2022-10-17T04:59:27;100568;;;14.98;89.52
62632;BME280;48703;51.248;-0.546;2022-10-17T05:02:28;100577;;;14.97;89.60
62632;BME280;48703;51.248;-0.546;2022-10-17T05:05:30;100590;;;14.97;89.71
62632;BME280;48703;51.248;-0.546;2022-10-17T05:08:32;100599;;;14.97;89.93
62632;BME280;48703;51.248;-0.546;2022-10-17T05:11:33;100609;;;14.95;90.22
62632;BME280;48703;51.248;-0.546;2022-10-17T05:14:35;100618;;;14.94;90.39
62632;BME280;48703;51.248;-0.546;2022-10-17T05:17:37;100616;;;14.94;90.49
62632;BME280;48703;51.248;-0.546;2022-10-17T05:20:39;100623;;;14.93;90.28
62632;BME280;48703;51.248;-0.546;2022-10-17T05:23:41;100624;;;14.91;90.26
62632;BME280;48703;51.248;-0.546;2022-10-17T05:26:43;100618;;;14.90;90.02
62632;BME280;48703;51.248;-0.546;2022-10-17T05:29:44;100626;;;14.88;90.00
62632;BME280;48703;51.248;-0.546;2022-10-17T05:32:46;100636;;;14.86;90.03
62632;BME280;48703;51.248;-0.546;2022-10-17T05:35:48;100644;;;14.85;90.05
62632;BME280;48703;51.248;-0.546;2022-10-17T05:38:50;100632;;;14.84;90.09
62632;BME280;48703;51.248;-0.546;2022-10-17T05:41:52;100630;;;14.82;90.22
62632;BME280;48703;51.248;-0.546;2022-10-17T05:44:54;100640;;;14.81;90.24
62632;BME280;48703;51.248;-0.546;2022-10-17T05:47:56;100637;;;14.78;90.24
62632;BME280;48703;51.248;-0.546;2022-10-17T05:50:58;100647;;;14.77;90.21
62632;BME280;48703;51.248;-0.546;2022-10-17T05:53:59;100662;;;14.74;89.98
62632;BME280;48703;51.248;-0.546;2022-10-17T05:57:01;100669;;;14.72;89.84
62632;BME280;48703;51.248;-0.546;2022-10-17T06:00:04;100672;;;14.70;89.81
62632;BME280;48703;51.248;-0.546;2022-10-17T06:03:05;100680;;;14.68;89.77
62632;BME280;48703;51.248;-0.546;2022-10-17T06:06:08;100681;;;14.66;89.72
62632;BME280;48703;51.248;-0.546;2022-10-17T06:09:09;100694;;;14.63;89.71
62632;BME280;48703;51.248;-0.546;2022-10-17T06:12:10;100677;;;14.62;89.66
62632;BME280;48703;51.248;-0.546;2022-10-17T06:15:12;100683;;;14.59;89.75
62632;BME280;48703;51.248;-0.546;2022-10-17T06:18:14;100691;;;14.57;89.63
62632;BME280;48703;51.248;-0.546;2022-10-17T06:21:17;100682;;;14.55;89.72
62632;BME280;48703;51.248;-0.546;2022-10-17T06:24:18;100681;;;14.52;89.64
62632;BME280;48703;51.248;-0.546;2022-10-17T06:27:21;100688;;;14.50;89.65
62632;BME280;48703;51.248;-0.546;2022-10-17T06:30:22;100703;;;14.48;89.59
62632;BME280;48703;51.248;-0.546;2022-10-17T06:33:24;100715;;;14.45;89.67
62632;BME280;48703;51.248;-0.546;2022-10-17T06:36:25;100725;;;14.43;89.68
62632;BME280;48703;51.248;-0.546;2022-10-17T06:39:27;100724;;;14.42;89.66
62632;BME280;48703;51.248;-0.546;2022-10-17T06:42:29;100723;;;14.39;89.74
62632;BME280;48703;51.248;-0.546;2022-10-17T06:45:31;100725;;;14.38;89.73
62632;BME280;48703;51.248;-0.546;2022-10-17T06:48:33;100735;;;14.36;89.75
62632;BME280;48703;51.248;-0.546;2022-10-17T06:51:35;100758;;;14.35;89.70
62632;BME280;48703;51.248;-0.546;2022-10-17T06:54:37;100748;;;14.34;89.58
62632;BME280;48703;51.248;-0.546;2022-10-17T06:57:38;100758;;;14.33;89.64
62632;BME280;48703;51.248;-0.546;2022-10-17T07:00:40;100760;;;14.32;89.66
62632;BME280;48703;51.248;-0.546;2022-10-17T07:03:42;100785;;;14.31;89.60
62632;BME280;48703;51.248;-0.546;2022-10-17T07:06:44;100795;;;14.30;89.83
62632;BME280;48703;51.248;-0.546;2022-10-17T07:09:46;100794;;;14.30;89.73
62632;BME280;48703;51.248;-0.546;2022-10-17T07:12:48;100808;;;14.30;89.74
62632;BME280;48703;51.248;-0.546;2022-10-17T07:15:50;100824;;;14.29;89.72
62632;BME280;48703;51.248;-0.546;2022-10-17T07:18:51;100835;;;14.29;89.74
62632;BME280;48703;51.248;-0.546;2022-10-17T07:21:54;100845;;;14.28;89.81
62632;BME280;48703;51.248;-0.546;2022-10-17T07:24:55;100857;;;14.28;89.90
62632;BME280;48703;51.248;-0.546;2022-10-17T07:27:57;100865;;;14.28;89.75
62632;BME280;48703;51.248;-0.546;2022-10-17T07:31:02;100868;;;14.28;89.95
62632;BME280;48703;51.248;-0.546;2022-10-17T07:34:01;100868;;;14.28;89.89
62632;BME280;48703;51.248;-0.546;2022-10-17T07:37:03;100882;;;14.28;89.98
62632;BME280;48703;51.248;-0.546;2022-10-17T07:40:06;100885;;;14.28;89.90
62632;BME280;48703;51.248;-0.546;2022-10-17T07:43:06;100884;;;14.29;89.79
62632;BME280;48703;51.248;-0.546;2022-10-17T07:46:08;100893;;;14.30;89.88
62632;BME280;48703;51.248;-0.546;2022-10-17T07:49:10;100899;;;14.32;89.81
62632;BME280;48703;51.248;-0.546;2022-10-17T07:52:12;100906;;;14.33;89.79
62632;BME280;48703;51.248;-0.546;2022-10-17T07:55:14;100903;;;14.34;89.85
62632;BME280;48703;51.248;-0.546;2022-10-17T07:58:16;100914;;;14.36;89.91
62632;BME280;48703;51.248;-0.546;2022-10-17T08:01:17;100916;;;14.39;89.86
62632;BME280;48703;51.248;-0.546;2022-10-17T08:04:19;100919;;;14.40;89.85
62632;BME280;48703;51.248;-0.546;2022-10-17T08:07:21;100919;;;14.42;89.91
62632;BME280;48703;51.248;-0.546;2022-10-17T08:10:23;100928;;;14.45;90.01
62632;BME280;48703;51.248;-0.546;2022-10-17T08:13:25;100937;;;14.47;90.02
62632;BME280;48703;51.248;-0.546;2022-10-17T08:16:27;100943;;;14.49;89.84
62632;BME280;48703;51.248;-0.546;2022-10-17T08:19:29;100953;;;14.53;89.83
62632;BME280;48703;51.248;-0.546;2022-10-17T08:22:31;100959;;;14.56;89.89
62632;BME280;48703;51.248;-0.546;2022-10-17T08:25:32;100969;;;14.59;89.87
62632;BME280;48703;51.248;-0.546;2022-10-17T08:28:34;100973;;;14.61;89.77
62632;BME280;48703;51.248;-0.546;2022-10-17T08:31:36;100973;;;14.63;89.69
62632;BME280;48703;51.248;-0.546;2022-10-17T08:34:38;100982;;;14.65;89.66
62632;BME280;48703;51.248;-0.546;2022-10-17T08:37:40;100983;;;14.69;89.72
62632;BME280;48703;51.248;-0.546;2022-10-17T08:40:42;100984;;;14.71;89.61
62632;BME280;48703;51.248;-0.546;2022-10-17T08:43:47;100988;;;14.74;89.69
62632;BME280;48703;51.248;-0.546;2022-10-17T08:46:46;100996;;;14.75;89.45
62632;BME280;48703;51.248;-0.546;2022-10-17T08:49:48;101000;;;14.78;89.45
62632;BME280;48703;51.248;-0.546;2022-10-17T08:52:50;101007;;;14.80;89.23
62632;BME280;48703;51.248;-0.546;2022-10-17T08:55:52;101010;;;14.83;89.32
62632;BME280;48703;51.248;-0.546;2022-10-17T08:58:53;101014;;;14.85;89.33
62632;BME280;48703;51.248;-0.546;2022-10-17T09:01:56;101022;;;14.88;89.13
62632;BME280;48703;51.248;-0.546;2022-10-17T09:05:02;101037;;;14.90;88.93
62632;BME280;48703;51.248;-0.546;2022-10-17T09:08:02;101044;;;14.91;88.82
62632;BME280;48703;51.248;-0.546;2022-10-17T09:11:02;101049;;;14.91;88.38
62632;BME280;48703;51.248;-0.546;2022-10-17T09:14:05;101051;;;14.94;88.45
62632;BME280;48703;51.248;-0.546;2022-10-17T09:17:07;101049;;;14.95;88.16
62632;BME280;48703;51.248;-0.546;2022-10-17T09:20:08;101050;;;14.95;88.09
62632;BME280;48703;51.248;-0.546;2022-10-17T09:23:09;101058;;;14.95;87.80
62632;BME280;48703;51.248;-0.546;2022-10-17T09:26:10;101059;;;14.95;87.58
62632;BME280;48703;51.248;-0.546;2022-10-17T09:29:14;101065;;;14.96;87.43
62632;BME280;48703;51.248;-0.546;2022-10-17T09:32:14;101072;;;14.95;87.20
62632;BME280;48703;51.248;-0.546;2022-10-17T09:35:16;101076;;;14.96;87.45
62632;BME280;48703;51.248;-0.546;2022-10-17T09:38:18;101085;;;14.96;86.69
62632;BME280;48703;51.248;-0.546;2022-10-17T09:41:20;101089;;;14.95;86.23
62632;BME280;48703;51.248;-0.546;2022-10-17T09:44:21;101091;;;14.95;86.52
62632;BME280;48703;51.248;-0.546;2022-10-17T09:47:24;101098;;;14.95;86.56
62632;BME280;48703;51.248;-0.546;2022-10-17T09:50:25;101106;;;14.95;86.36
62632;BME280;48703;51.248;-0.546;2022-10-17T09:53:28;101110;;;14.95;86.22
62632;BME280;48703;51.248;-0.546;2022-10-17T09:56:28;101122;;;14.95;85.87
62632;BME280;48703;51.248;-0.546;2022-10-17T09:59:31;101123;;;14.96;85.52
62632;BME280;48703;51.248;-0.546;2022-10-17T10:02:32;101129;;;14.97;85.72
62632;BME280;48703;51.248;-0.546;2022-10-17T10:05:34;101135;;;14.99;85.91
62632;BME280;48703;51.248;-0.546;2022-10-17T10:08:36;101137;;;15.02;86.06
62632;BME280;48703;51.248;-0.546;2022-10-17T10:11:45;101145;;;15.04;86.07
62632;BME280;48703;51.248;-0.546;2022-10-17T10:14:39;101151;;;15.06;85.57
62632;BME280;48703;51.248;-0.546;2022-10-17T10:17:41;101157;;;15.07;85.19
62632;BME280;48703;51.248;-0.546;2022-10-17T10:20:43;101159;;;15.09;84.89
62632;BME280;48703;51.248;-0.546;2022-10-17T10:26:48;101168;;;15.14;84.53
62632;BME280;48703;51.248;-0.546;2022-10-17T10:29:49;101177;;;15.15;83.62
62632;BME280;48703;51.248;-0.546;2022-10-17T10:32:50;101180;;;15.17;83.84
62632;BME280;48703;51.248;-0.546;2022-10-17T10:35:54;101181;;;15.19;84.03
62632;BME280;48703;51.248;-0.546;2022-10-17T10:38:55;101188;;;15.21;84.02
62632;BME280;48703;51.248;-0.546;2022-10-17T10:41:56;101193;;;15.24;83.62
62632;BME280;48703;51.248;-0.546;2022-10-17T10:45:00;101196;;;15.26;83.31
62632;BME280;48703;51.248;-0.546;2022-10-17T10:48:00;101202;;;15.28;82.44
62632;BME280;48703;51.248;-0.546;2022-10-17T10:51:03;101207;;;15.30;81.75
62632;BME280;48703;51.248;-0.546;2022-10-17T10:54:04;101216;;;15.32;81.66
62632;BME280;48703;51.248;-0.546;2022-10-17T10:57:07;101219;;;15.33;82.17
62632;BME280;48703;51.248;-0.546;2022-10-17T11:00:08;101230;;;15.34;82.09
62632;BME280;48703;51.248;-0.546;2022-10-17T11:03:11;101237;;;15.36;82.09
62632;BME280;48703;51.248;-0.546;2022-10-17T11:06:11;101236;;;15.38;81.70
62632;BME280;48703;51.248;-0.546;2022-10-17T11:09:17;101237;;;15.40;81.74
62632;BME280;48703;51.248;-0.546;2022-10-17T11:12:17;101249;;;15.42;81.01
62632;BME280;48703;51.248;-0.546;2022-10-17T11:15:18;101261;;;15.45;81.44
62632;BME280;48703;51.248;-0.546;2022-10-17T11:18:20;101263;;;15.45;81.36
62632;BME280;48703;51.248;-0.546;2022-10-17T11:21:22;101264;;;15.45;81.15
62632;BME280;48703;51.248;-0.546;2022-10-17T11:24:23;101268;;;15.45;80.75
62632;BME280;48703;51.248;-0.546;2022-10-17T11:27:24;101276;;;15.45;80.11
62632;BME280;48703;51.248;-0.546;2022-10-17T11:30:27;101283;;;15.44;79.78
62632;BME280;48703;51.248;-0.546;2022-10-17T11:33:29;101280;;;15.43;79.33
62632;BME280;48703;51.248;-0.546;2022-10-17T11:36:30;101279;;;15.41;78.45
62632;BME280;48703;51.248;-0.546;2022-10-17T11:39:34;101283;;;15.39;78.16
62632;BME280;48703;51.248;-0.546;2022-10-17T11:42:34;101284;;;15.36;77.21
62632;BME280;48703;51.248;-0.546;2022-10-17T11:45:39;101287;;;15.34;77.45
62632;BME280;48703;51.248;-0.546;2022-10-17T11:48:38;101290;;;15.33;77.93
62632;BME280;48703;51.248;-0.546;2022-10-17T11:51:42;101294;;;15.32;78.08
62632;BME280;48703;51.248;-0.546;2022-10-17T11:54:41;101297;;;15.31;77.59
62632;BME280;48703;51.248;-0.546;2022-10-17T11:57:49;101296;;;15.31;77.56
62632;BME280;48703;51.248;-0.546;2022-10-17T12:00:49;101298;;;15.31;77.38
62632;BME280;48703;51.248;-0.546;2022-10-17T12:03:53;101298;;;15.32;77.05
62632;BME280;48703;51.248;-0.546;2022-10-17T12:06:52;101295;;;15.36;77.36
62632;BME280;48703;51.248;-0.546;2022-10-17T12:09:51;101297;;;15.42;77.82
62632;BME280;48703;51.248;-0.546;2022-10-17T12:12:52;101300;;;15.46;77.60
62632;BME280;48703;51.248;-0.546;2022-10-17T12:15:54;101304;;;15.47;77.65
62632;BME280;48703;51.248;-0.546;2022-10-17T12:19:12;101308;;;15.46;77.24
62632;BME280;48703;51.248;-0.546;2022-10-17T12:21:59;101305;;;15.46;76.92
62632;BME280;48703;51.248;-0.546;2022-10-17T12:24:59;101301;;;15.46;76.70
62632;BME280;48703;51.248;-0.546;2022-10-17T12:28:06;101303;;;15.45;77.48
62632;BME280;48703;51.248;-0.546;2022-10-17T12:31:04;101303;;;15.46;76.62
62632;BME280;48703;51.248;-0.546;2022-10-17T12:34:05;101308;;;15.48;77.23
62632;BME280;48703;51.248;-0.546;2022-10-17T12:37:09;101314;;;15.47;76.97
62632;BME280;48703;51.248;-0.546;2022-10-17T12:40:37;101318;;;15.45;76.79
62632;BME280;48703;51.248;-0.546;2022-10-17T12:43:31;101318;;;15.43;77.59
62632;BME280;48703;51.248;-0.546;2022-10-17T12:46:16;101318;;;15.39;76.82
62632;BME280;48703;51.248;-0.546;2022-10-17T12:49:47;101318;;;15.36;76.15
62632;BME280;48703;51.248;-0.546;2022-10-17T12:52:17;101320;;;15.34;77.28
62632;BME280;48703;51.248;-0.546;2022-10-17T12:55:18;101318;;;15.32;76.99
62632;BME280;48703;51.248;-0.546;2022-10-17T12:58:20;101320;;;15.30;77.07
62632;BME280;48703;51.248;-0.546;2022-10-17T13:01:27;101329;;;15.30;76.95
62632;BME280;48703;51.248;-0.546;2022-10-17T13:04:23;101333;;;15.31;75.17
62632;BME280;48703;51.248;-0.546;2022-10-17T13:07:25;101328;;;15.37;76.15
62632;BME280;48703;51.248;-0.546;2022-10-17T13:10:28;101324;;;15.43;76.86
62632;BME280;48703;51.248;-0.546;2022-10-17T13:13:34;101324;;;15.46;76.17
62632;BME280;48703;51.248;-0.546;2022-10-17T13:16:32;101328;;;15.55;74.80
62632;BME280;48703;51.248;-0.546;2022-10-17T13:19:38;101330;;;15.62;73.69
62632;BME280;48703;51.248;-0.546;2022-10-17T13:22:35;101335;;;15.67;74.87
62632;BME280;48703;51.248;-0.546;2022-10-17T13:25:36;101335;;;15.71;72.30
62632;BME280;48703;51.248;-0.546;2022-10-17T13:28:38;101336;;;15.77;72.95
62632;BME280;48703;51.248;-0.546;2022-10-17T13:31:41;101342;;;15.84;73.72
62632;BME280;48703;51.248;-0.546;2022-10-17T13:34:42;101350;;;15.86;73.73
62632;BME280;48703;51.248;-0.546;2022-10-17T13:37:45;101355;;;15.89;73.92
62632;BME280;48703;51.248;-0.546;2022-10-17T13:40:46;101351;;;15.94;71.36
62632;BME280;48703;51.248;-0.546;2022-10-17T13:43:48;101350;;;15.99;73.30
62632;BME280;48703;51.248;-0.546;2022-10-17T13:46:49;101350;;;16.00;72.83
62632;BME280;48703;51.248;-0.546;2022-10-17T13:49:51;101349;;;16.02;73.27
62632;BME280;48703;51.248;-0.546;2022-10-17T13:53:28;101348;;;16.01;73.60
62632;BME280;48703;51.248;-0.546;2022-10-17T13:55:57;101343;;;16.02;73.88
62632;BME280;48703;51.248;-0.546;2022-10-17T13:58:57;101349;;;16.04;73.93
62632;BME280;48703;51.248;-0.546;2022-10-17T14:01:59;101355;;;16.11;72.98
62632;BME280;48703;51.248;-0.546;2022-10-17T14:05:02;101361;;;16.17;72.34
62632;BME280;48703;51.248;-0.546;2022-10-17T14:08:03;101364;;;16.21;70.17
62632;BME280;48703;51.248;-0.546;2022-10-17T14:11:12;101369;;;16.23;68.77
62632;BME280;48703;51.248;-0.546;2022-10-17T14:14:06;101373;;;16.23;66.91
62632;BME280;48703;51.248;-0.546;2022-10-17T14:17:11;101377;;;16.25;67.94
62632;BME280;48703;51.248;-0.546;2022-10-17T14:20:16;101379;;;16.26;66.65
62632;BME280;48703;51.248;-0.546;2022-10-17T14:23:27;101381;;;16.28;66.32
62632;BME280;48703;51.248;-0.546;2022-10-17T14:26:14;101384;;;16.31;66.17
62632;BME280;48703;51.248;-0.546;2022-10-17T14:29:24;101389;;;16.33;63.71
62632;BME280;48703;51.248;-0.546;2022-10-17T14:32:18;101390;;;16.35;64.72
62632;BME280;48703;51.248;-0.546;2022-10-17T14:35:19;101396;;;16.35;65.61
62632;BME280;48703;51.248;-0.546;2022-10-17T14:38:21;101405;;;16.39;65.43
62632;BME280;48703;51.248;-0.546;2022-10-17T14:41:24;101414;;;16.41;66.07
62632;BME280;48703;51.248;-0.546;2022-10-17T14:44:25;101417;;;16.40;66.11
62632;BME280;48703;51.248;-0.546;2022-10-17T14:47:27;101418;;;16.39;64.34
62632;BME280;48703;51.248;-0.546;2022-10-17T14:50:29;101421;;;16.44;65.47
62632;BME280;48703;51.248;-0.546;2022-10-17T14:53:30;101423;;;16.43;65.57
62632;BME280;48703;51.248;-0.546;2022-10-17T14:56:33;101422;;;16.44;66.32
62632;BME280;48703;51.248;-0.546;2022-10-17T14:59:34;101424;;;16.41;66.67
62632;BME280;48703;51.248;-0.546;2022-10-17T15:02:36;101433;;;16.39;66.80
62632;BME280;48703;51.248;-0.546;2022-10-17T15:05:38;101440;;;16.41;66.81
62632;BME280;48703;51.248;-0.546;2022-10-17T15:08:40;101449;;;16.42;67.67
62632;BME280;48703;51.248;-0.546;2022-10-17T15:11:41;101454;;;16.43;68.31
62632;BME280;48703;51.248;-0.546;2022-10-17T15:14:43;101458;;;16.48;68.72
62632;BME280;48703;51.248;-0.546;2022-10-17T15:17:45;101455;;;16.53;68.84
62632;BME280;48703;51.248;-0.546;2022-10-17T15:20:47;101454;;;16.55;67.56
62632;BME280;48703;51.248;-0.546;2022-10-17T15:23:49;101455;;;16.55;66.95
62632;BME280;48703;51.248;-0.546;2022-10-17T15:26:51;101453;;;16.53;67.32
62632;BME280;48703;51.248;-0.546;2022-10-17T15:29:53;101455;;;16.52;66.50
62632;BME280;48703;51.248;-0.546;2022-10-17T15:32:55;101458;;;16.48;67.23
62632;BME280;48703;51.248;-0.546;2022-10-17T15:35:56;101463;;;16.40;67.03
62632;BME280;48703;51.248;-0.546;2022-10-17T15:39:00;101470;;;16.35;67.41
62632;BME280;48703;51.248;-0.546;2022-10-17T15:42:00;101476;;;16.28;67.98
62632;BME280;48703;51.248;-0.546;2022-10-17T15:45:02;101485;;;16.23;68.23
62632;BME280;48703;51.248;-0.546;2022-10-17T15:48:05;101490;;;16.18;67.99
62632;BME280;48703;51.248;-0.546;2022-10-17T15:51:06;101488;;;16.15;68.36
62632;BME280;48703;51.248;-0.546;2022-10-17T15:54:08;101489;;;16.09;69.30
62632;BME280;48703;51.248;-0.546;2022-10-17T15:57:14;101490;;;16.04;69.56
62632;BME280;48703;51.248;-0.546;2022-10-17T16:00:15;101489;;;15.99;69.47
62632;BME280;48703;51.248;-0.546;2022-10-17T16:03:13;101491;;;15.95;70.40
62632;BME280;48703;51.248;-0.546;2022-10-17T16:06:15;101496;;;15.90;70.33
62632;BME280;48703;51.248;-0.546;2022-10-17T16:09:17;101503;;;15.85;70.63
62632;BME280;48703;51.248;-0.546;2022-10-17T16:12:21;101507;;;15.80;70.75
62632;BME280;48703;51.248;-0.546;2022-10-17T16:15:22;101506;;;15.76;70.34
62632;BME280;48703;51.248;-0.546;2022-10-17T16:18:22;101508;;;15.73;70.39